Map

Track Data

SID SEASON NUMBER BASIN SUBBASIN NAME ISO_TIME NATURE LAT LON WMO_WIND WMO_PRES WMO_AGENCY TRACK_TYPE DIST2LAND LANDFALL IFLAG USA_AGENCY USA_ATCF_ID USA_LAT USA_LON USA_RECORD USA_STATUS USA_WIND USA_PRES USA_SSHS USA_R34_NE USA_R34_SE USA_R34_SW USA_R34_NW USA_R50_NE USA_R50_SE USA_R50_SW USA_R50_NW USA_R64_NE USA_R64_SE USA_R64_SW USA_R64_NW USA_POCI USA_ROCI USA_RMW USA_EYE TOKYO_LAT TOKYO_LON TOKYO_GRADE TOKYO_WIND TOKYO_PRES TOKYO_R50_DIR TOKYO_R50_LONG TOKYO_R50_SHORT TOKYO_R30_DIR TOKYO_R30_LONG TOKYO_R30_SHORT TOKYO_LAND CMA_LAT CMA_LON CMA_CAT CMA_WIND CMA_PRES HKO_LAT HKO_LON HKO_CAT HKO_WIND HKO_PRES NEWDELHI_LAT NEWDELHI_LON NEWDELHI_GRADE NEWDELHI_WIND NEWDELHI_PRES NEWDELHI_CI NEWDELHI_DP NEWDELHI_POCI REUNION_LAT REUNION_LON REUNION_TYPE REUNION_WIND REUNION_PRES REUNION_TNUM REUNION_CI REUNION_RMW REUNION_R34_NE REUNION_R34_SE REUNION_R34_SW REUNION_R34_NW REUNION_R50_NE REUNION_R50_SE REUNION_R50_SW REUNION_R50_NW REUNION_R64_NE REUNION_R64_SE REUNION_R64_SW REUNION_R64_NW BOM_LAT BOM_LON BOM_TYPE BOM_WIND BOM_PRES BOM_TNUM BOM_CI BOM_RMW BOM_R34_NE BOM_R34_SE BOM_R34_SW BOM_R34_NW BOM_R50_NE BOM_R50_SE BOM_R50_SW BOM_R50_NW BOM_R64_NE BOM_R64_SE BOM_R64_SW BOM_R64_NW BOM_ROCI BOM_POCI BOM_EYE BOM_POS_METHOD BOM_PRES_METHOD NADI_LAT NADI_LON NADI_CAT NADI_WIND NADI_PRES WELLINGTON_LAT WELLINGTON_LON WELLINGTON_WIND WELLINGTON_PRES DS824_LAT DS824_LON DS824_STAGE DS824_WIND DS824_PRES TD9636_LAT TD9636_LON TD9636_STAGE TD9636_WIND TD9636_PRES TD9635_LAT TD9635_LON TD9635_WIND TD9635_PRES TD9635_ROCI NEUMANN_LAT NEUMANN_LON NEUMANN_CLASS NEUMANN_WIND NEUMANN_PRES MLC_LAT MLC_LON MLC_CLASS MLC_WIND MLC_PRES USA_GUST BOM_GUST BOM_GUST_PER REUNION_GUST REUNION_GUST_PER USA_SEAHGT USA_SEARAD_NE USA_SEARAD_SE USA_SEARAD_SW USA_SEARAD_NW STORM_SPEED STORM_DIR
1970009S12185 1970 5 SP MM NOT_NAMED 1970-01-09 00:00:00 TS -12.4000 185.000 main 268 268 O________OO_O_ jtwc_sh SH091970 -12.4000 -175.000 -1 -12.4000 185.000 TC 35 -12.4000 -175.000 2 -12.4000 -175.000 TC 30 14 253
1970009S12185 1970 5 SP MM NOT_NAMED 1970-01-09 03:00:00 TS -12.5926 184.336 main 330 330 P________PP_P_ SH091970 -12.5853 -175.660 -1 -12.5853 -175.660 TC 35 -12.6144 -175.677 2 -12.5853 -175.660 TC 32 13 252
1970009S12185 1970 5 SP MM NOT_NAMED 1970-01-09 06:00:00 TS -12.8106 183.694 main 387 387 O________OP_O_ jtwc_sh SH091970 -12.8000 -176.300 -1 -12.8000 183.700 TC 35 -12.8423 -176.324 2 -12.8000 -176.300 TC 35 13 248
1970009S12185 1970 5 SP MM NOT_NAMED 1970-01-09 09:00:00 TS -13.0772 183.102 main 446 427 P________PP_P_ SH091970 -13.0699 -176.895 -1 -13.0699 -176.895 TC 35 -13.0989 -176.908 2 -13.0699 -176.895 TC 35 12 241
1970009S12185 1970 5 SP MM NOT_NAMED 1970-01-09 12:00:00 TS -13.4000 182.600 main 427 365 O________OO_O_ jtwc_sh SH091970 -13.4000 -177.400 -1 -13.4000 182.600 TC 35 -13.4000 -177.400 2 -13.4000 -177.400 TC 35 11 231
1970009S12185 1970 5 SP MM NOT_NAMED 1970-01-09 15:00:00 TS -13.7775 182.219 main 365 310 P________PP_P_ SH091970 -13.7848 -177.780 -1 -13.7848 -177.780 TC 35 -13.7556 -177.782 2 -13.7848 -177.780 TC 35 10 221
1970009S12185 1970 5 SP MM NOT_NAMED 1970-01-09 18:00:00 TS -14.1883 181.900 main 310 255 O________OP_O_ jtwc_sh SH091970 -14.2000 -178.100 -1 -14.2000 181.900 TC 35 -14.1532 -178.102 2 -14.2000 -178.100 TC 35 10 217
1970009S12185 1970 5 SP MM NOT_NAMED 1970-01-09 21:00:00 TS -14.5952 181.591 main 255 193 P________PP_P_ SH091970 -14.5997 -178.405 -1 -14.5997 -178.405 TC 35 -14.5743 -178.420 2 -14.6072 -178.405 TC 35 11 220
1970009S12185 1970 5 SP MM NOT_NAMED 1970-01-10 00:00:00 TS -15.0000 181.200 main 193 116 O________OO_O_ jtwc_sh SH091970 -15.0000 -178.800 -1 -15.0000 181.200 TC 35 -15.0000 -178.800 2 -15.0000 -178.800 TC 35 13 231
1970009S12185 1970 5 SP MM NOT_NAMED 1970-01-10 03:00:00 TS -15.3913 180.577 main 116 44 P________PP_P_ SH091970 -15.4003 -179.420 -1 -15.4003 -179.420 TC 35 -15.4220 -179.432 2 -15.3428 -179.420 TC 35 15 238
1970009S12185 1970 5 SP MM NOT_NAMED 1970-01-10 06:00:00 TS -15.7850 179.896 main 44 22 O________OP_O_ jtwc_sh SH091970 -15.8000 179.900 -1 -15.8000 179.900 TC 35 -15.8399 179.883 2 -15.7000 179.900 TC 35 15 237
1970009S12185 1970 5 SP MM NOT_NAMED 1970-01-10 09:00:00 TS -16.2157 179.257 main 24 10 P________PP_P_ SH091970 -16.2301 179.260 -1 -16.2301 179.260 TC 35 -16.2376 179.256 2 -16.1651 179.253 TC 35 13 232
1970009S12185 1970 5 SP MM NOT_NAMED 1970-01-10 12:00:00 TS -16.6000 178.800 main 10 0 O________OO_O_ jtwc_sh SH091970 -16.6000 178.800 -1 -16.6000 178.800 TC 35 -16.6000 178.800 2 -16.6000 178.800 TC 35 8 224
1970009S12185 1970 5 SP MM NOT_NAMED 1970-01-10 15:00:00 TS -16.8166 178.652 main 0 0 P________PP_P_ SH091970 -16.8072 178.645 -1 -16.8072 178.645 TC 35 -16.7799 178.615 2 -16.8722 178.702 TC 35 4 192
1970009S12185 1970 5 SP MM NOT_NAMED 1970-01-10 18:00:00 TS -17.0116 178.704 main 0 0 O________OP_O_ jtwc_sh SH091970 -17.0000 178.700 -1 -17.0000 178.700 TC 35 -16.9463 178.617 2 -17.1000 178.800 TC 35 4 160
1970009S12185 1970 5 SP MM NOT_NAMED 1970-01-10 21:00:00 TS -17.2368 178.807 main 24 24 P________PP_P_ SH091970 -17.2300 178.805 -1 -17.2300 178.805 TC 35 -17.2147 178.760 2 -17.2725 178.856 TC 35 7 158
1970009S12185 1970 5 SP MM NOT_NAMED 1970-01-11 00:00:00 TS -17.7000 179.000 main 42 38 O________OO_O_ jtwc_sh SH091970 -17.7000 179.000 -1 -17.7000 179.000 TC 35 -17.7000 179.000 2 -17.7000 179.000 TC 35 14 164
1970009S12185 1970 5 SP MM NOT_NAMED 1970-01-11 03:00:00 TS -18.6018 179.205 main 76 76 P________PP_P_ SH091970 -18.5800 179.206 -1 -18.5800 179.206 TC 35 -18.5596 179.154 2 -18.6876 179.255 TC 35 21 167
1970009S12185 1970 5 SP MM NOT_NAMED 1970-01-11 06:00:00 TS -19.7343 179.502 main 197 197 O________OP_O_ jtwc_sh SH091970 -19.7000 179.500 -1 -19.7000 179.500 TC 35 -19.6371 179.407 2 -19.9000 179.600 TC 35 24 165
1970009S12185 1970 5 SP MM NOT_NAMED 1970-01-11 09:00:00 TS -20.8673 179.862 main 337 337 P________PP_P_ SH091970 -20.8495 179.861 -1 -20.8495 179.861 TC 35 -20.8211 179.806 2 -20.9493 179.919 TC 35 24 160
1970009S12185 1970 5 SP MM NOT_NAMED 1970-01-11 12:00:00 TS -22.0000 180.400 main 470 470 O________OO_O_ jtwc_sh SH091970 -22.0000 -179.600 -1 -22.0000 180.400 TC 35 -22.0000 -179.600 2 -22.0000 -179.600 TC 35 25 151
1970009S12185 1970 5 SP MM NOT_NAMED 1970-01-11 15:00:00 TS -23.0682 181.152 main 616 616 P________PP_P_ SH091970 -23.0292 -178.868 -1 -23.0292 -178.868 TC 35 -23.0852 -178.779 2 -23.1293 -178.877 TC 35 26 142
1970009S12185 1970 5 SP MM NOT_NAMED 1970-01-11 18:00:00 TS -24.0699 182.133 main 757 757 O________OP_O_ jtwc_sh SH091970 -24.0000 -177.900 -1 -24.0000 182.100 TC 35 -24.0797 -177.768 2 -24.2000 -177.900 TC 35 28 135
1970009S12185 1970 5 SP MM NOT_NAMED 1970-01-11 21:00:00 TS -25.0062 183.310 main 906 906 P________PP_P_ SH091970 -24.9552 -176.715 -1 -24.9552 -176.715 TC 35 -25.0093 -176.622 2 -25.1051 -176.710 TC 32 29 129
1970009S12185 1970 5 SP MM NOT_NAMED 1970-01-12 00:00:00 TS -25.9000 184.600 main 1062 O________OO_O_ jtwc_sh SH091970 -25.9000 -175.400 -1 -25.9000 184.600 TC 35 -25.9000 -175.400 2 -25.9000 -175.400 TC 30 29 128

Digital Typhoon Data and Search

About IBTrACS Database

This database is a web-friendly format of International Best Track Archive for Climate Stewardship (IBTrACS), a global best track data archive curated by NOAA dating back to 1842.

Updated: 2021-12-03